Terminal Aerodrome Forecast
Issued by NWS Dallas/Fort Worth, TX

Home | Current Version | Previous Version | Text Only | Print | Product List | Glossary On
Versions: 1 2 3 4 5 6 7 8 9 10 11 12 13 14 15 16 17 18 19 20 21 22 23 24 25
000
FTUS44 KFWD 062045 AAA
TAFDFW
TAF AMD
KDFW 062045Z 0621/0724 18023KT P6SM SCT040
     FM070100 18018KT P6SM SCT060
     FM071000 18015KT P6SM BKN025
     FM071500 18014KT P6SM SCT025 OVC250=

USA.gov is the U.S. government's official web portal to all federal, state and local government web resources and services.